createdAt,value
2018-06-09T00:00:07.281Z,10.70
2018-06-09T00:02:35.208Z,10.25
2018-06-09T00:05:03.113Z,11.03
2018-06-09T00:07:30.945Z,10.72
2018-06-09T00:09:58.785Z,10.43
2018-06-09T00:12:26.535Z,10.23
2018-06-09T00:14:54.325Z,10.25
2018-06-09T00:17:22.269Z,11.25
2018-06-09T00:19:50.109Z,10.53
2018-06-09T00:22:18.656Z,10.60
2018-06-09T00:24:46.451Z,11.13
2018-06-09T00:27:14.205Z,10.43
2018-06-09T00:29:42.067Z,11.25
2018-06-09T00:32:10.000Z,11.00
2018-06-09T00:34:37.861Z,11.38
2018-06-09T00:37:05.718Z,10.83
2018-06-09T00:39:33.623Z,11.18
2018-06-09T00:42:01.561Z,11.73
2018-06-09T00:44:29.367Z,10.65
2018-06-09T00:46:57.145Z,11.65
2018-06-09T00:49:24.978Z,11.63
2018-06-09T00:51:52.805Z,10.32
2018-06-09T00:54:20.625Z,11.30
2018-06-09T00:56:48.522Z,11.05
2018-06-09T00:59:16.372Z,11.18
2018-06-09T01:01:44.225Z,11.30
2018-06-09T01:04:12.125Z,10.32
2018-06-09T01:06:39.870Z,11.18
2018-06-09T01:09:08.554Z,10.32
2018-06-09T01:11:36.343Z,10.32
2018-06-09T01:14:04.244Z,10.93
2018-06-09T01:16:32.036Z,10.30
2018-06-09T01:18:59.957Z,10.60
2018-06-09T01:21:27.720Z,10.85
2018-06-09T01:23:55.632Z,10.85
2018-06-09T01:26:23.424Z,11.03
2018-06-09T01:28:51.353Z,10.63
2018-06-09T01:31:19.190Z,11.43
2018-06-09T01:33:46.950Z,10.78
2018-06-09T01:36:14.743Z,11.43
2018-06-09T01:38:42.549Z,11.97
2018-06-09T01:41:10.330Z,11.60
2018-06-09T01:43:38.069Z,11.05
2018-06-09T01:46:05.936Z,11.10
2018-06-09T01:48:33.779Z,12.05
2018-06-09T01:51:01.524Z,12.15
2018-06-09T01:53:29.306Z,11.83
2018-06-09T01:55:57.171Z,12.43
2018-06-09T01:58:24.937Z,12.17
2018-06-09T02:00:52.745Z,12.30
2018-06-09T02:03:20.521Z,12.60
2018-06-09T02:05:48.220Z,13.60
2018-06-09T02:08:16.013Z,13.87
2018-06-09T02:10:43.807Z,13.33
2018-06-09T02:13:11.657Z,14.40
2018-06-09T02:15:39.508Z,14.30
2018-06-09T02:18:07.384Z,14.47
2018-06-09T02:20:35.252Z,14.77
2018-06-09T02:23:03.090Z,14.80
2018-06-09T02:25:30.975Z,15.37
2018-06-09T02:27:58.811Z,14.60
2018-06-09T02:30:26.659Z,14.73
2018-06-09T02:32:54.436Z,15.33
2018-06-09T02:35:22.302Z,16.33
2018-06-09T02:37:50.184Z,16.87
2018-06-09T02:40:18.161Z,16.83
2018-06-09T02:42:46.048Z,17.23
2018-06-09T02:45:13.849Z,16.03
2018-06-09T02:47:41.636Z,15.83
2018-06-09T02:50:09.478Z,15.73
2018-06-09T02:52:37.253Z,15.47
2018-06-09T02:55:05.113Z,16.97
2018-06-09T02:57:32.917Z,16.43
2018-06-09T03:00:00.785Z,16.53
2018-06-09T03:02:28.645Z,17.90
2018-06-09T03:04:56.460Z,17.23
2018-06-09T03:07:24.270Z,17.33
2018-06-09T03:09:52.146Z,16.63
2018-06-09T03:12:19.978Z,16.93
2018-06-09T03:14:47.871Z,16.43
2018-06-09T03:17:15.664Z,17.10
2018-06-09T03:19:43.589Z,17.17
2018-06-09T03:22:11.406Z,17.73
2018-06-09T03:24:39.257Z,17.23
2018-06-09T03:27:07.116Z,16.37
2018-06-09T03:29:34.940Z,16.53
2018-06-09T03:32:02.756Z,17.93
2018-06-09T03:34:30.564Z,17.23
2018-06-09T03:36:58.480Z,16.80
2018-06-09T03:39:26.381Z,17.20
2018-06-09T03:41:54.217Z,16.27
2018-06-09T03:44:22.028Z,16.80
2018-06-09T03:46:49.884Z,17.00
2018-06-09T03:49:17.728Z,16.43
2018-06-09T03:51:45.700Z,17.67
2018-06-09T03:54:13.517Z,17.23
2018-06-09T03:56:41.325Z,17.03
2018-06-09T03:59:09.126Z,17.37
2018-06-09T04:01:36.956Z,16.97
2018-06-09T04:04:04.774Z,17.23
2018-06-09T04:06:32.689Z,18.03
2018-06-09T04:09:00.486Z,15.90
2018-06-09T04:11:28.246Z,16.40
2018-06-09T04:13:56.080Z,15.72
2018-06-09T04:16:23.892Z,16.93
2018-06-09T04:18:51.668Z,17.25
2018-06-09T04:21:19.580Z,14.90
2018-06-09T04:23:47.384Z,15.15
2018-06-09T04:26:15.198Z,15.53
2018-06-09T04:28:42.945Z,14.85
2018-06-09T04:31:10.771Z,14.60
2018-06-09T04:33:38.612Z,14.33
2018-06-09T04:36:06.445Z,14.98
2018-06-09T04:38:34.206Z,15.08
2018-06-09T04:41:02.056Z,15.10
2018-06-09T04:43:29.798Z,13.70
2018-06-09T04:45:57.714Z,14.07
2018-06-09T04:48:25.617Z,15.88
2018-06-09T04:50:53.465Z,13.85
2018-06-09T04:53:21.209Z,13.13
2018-06-09T04:55:48.976Z,13.78
2018-06-09T04:58:16.755Z,13.38
2018-06-09T05:00:44.503Z,13.28
2018-06-09T05:03:12.252Z,12.78
2018-06-09T05:05:40.024Z,12.90
2018-06-09T05:08:07.753Z,12.18
2018-06-09T05:10:35.536Z,13.10
2018-06-09T05:13:03.369Z,13.08
2018-06-09T05:15:31.132Z,13.15
2018-06-09T05:17:58.853Z,12.55
2018-06-09T05:20:26.646Z,14.53
2018-06-09T05:22:54.469Z,14.75
2018-06-09T05:25:22.224Z,14.30
2018-06-09T05:27:49.948Z,13.98
2018-06-09T05:30:17.691Z,14.03
2018-06-09T05:32:45.556Z,13.95
2018-06-09T05:35:13.345Z,14.33
2018-06-09T05:37:41.193Z,14.20
2018-06-09T05:40:08.969Z,14.28
2018-06-09T05:42:36.813Z,13.62
2018-06-09T05:45:04.609Z,14.25
2018-06-09T05:47:32.431Z,13.83
2018-06-09T05:50:00.200Z,13.53
2018-06-09T05:52:28.056Z,13.85
2018-06-09T05:54:55.829Z,14.20
2018-06-09T05:57:23.678Z,13.65
2018-06-09T05:59:51.468Z,13.78
2018-06-09T06:02:19.239Z,13.53
2018-06-09T06:04:47.023Z,13.45
2018-06-09T06:07:14.853Z,12.78
2018-06-09T06:09:42.694Z,13.30
2018-06-09T06:12:10.403Z,13.08
2018-06-09T06:14:38.092Z,12.35
2018-06-09T06:17:05.993Z,12.88
2018-06-09T06:19:33.772Z,12.15
2018-06-09T06:22:01.640Z,12.13
2018-06-09T06:24:29.510Z,12.13
2018-06-09T06:26:57.324Z,12.98
2018-06-09T06:29:25.101Z,12.00
2018-06-09T06:31:52.900Z,12.85
2018-06-09T06:34:20.620Z,12.40
2018-06-09T06:36:48.456Z,11.38
2018-06-09T06:39:16.265Z,12.80
2018-06-09T06:41:44.060Z,13.00
2018-06-09T06:44:11.882Z,12.05
2018-06-09T06:46:39.681Z,13.05
2018-06-09T06:49:07.476Z,13.00
2018-06-09T06:51:35.221Z,11.80
2018-06-09T06:54:03.037Z,12.58
2018-06-09T06:56:30.828Z,11.80
2018-06-09T06:58:58.677Z,11.28
2018-06-09T07:01:26.504Z,11.75
2018-06-09T07:03:54.352Z,11.55
2018-06-09T07:06:22.112Z,12.03
2018-06-09T07:08:49.900Z,11.08
2018-06-09T07:11:17.707Z,11.30
2018-06-09T07:13:45.513Z,11.28
2018-06-09T07:16:13.241Z,11.10
2018-06-09T07:18:41.017Z,11.12
2018-06-09T07:21:08.863Z,10.75
2018-06-09T07:23:36.677Z,10.68
2018-06-09T07:26:04.650Z,10.40
2018-06-09T07:28:32.397Z,10.88
2018-06-09T07:31:00.153Z,11.43
2018-06-09T07:33:27.946Z,10.68
2018-06-09T07:35:55.750Z,11.28
2018-06-09T07:38:23.577Z,10.72
2018-06-09T07:40:51.396Z,11.53
2018-06-09T07:43:19.173Z,10.78
2018-06-09T07:45:47.035Z,10.38
2018-06-09T07:48:14.779Z,10.20
2018-06-09T07:50:42.561Z,10.98
2018-06-09T07:53:10.231Z,10.58
2018-06-09T07:55:37.970Z,11.22
2018-06-09T07:58:05.708Z,10.03
2018-06-09T08:00:33.433Z,10.32
2018-06-09T08:03:01.201Z,10.53
2018-06-09T08:05:28.985Z,10.75
2018-06-09T08:07:56.704Z,10.48
2018-06-09T08:10:24.511Z,10.98
2018-06-09T08:12:52.404Z,10.65
2018-06-09T08:24:24.408Z,11.00
2018-06-09T08:26:52.197Z,10.40
2018-06-09T08:29:19.918Z,10.20
2018-06-09T08:31:47.628Z,10.25
2018-06-09T08:34:15.417Z,10.70
2018-06-09T08:36:43.199Z,9.70
2018-06-09T08:39:10.963Z,10.68
2018-06-09T08:41:38.729Z,10.68
2018-06-09T08:44:06.465Z,10.32
2018-06-09T08:46:34.254Z,9.73
2018-06-09T08:49:02.250Z,10.05
2018-06-09T08:51:30.050Z,9.68
2018-06-09T08:53:57.872Z,9.28
2018-06-09T08:56:25.577Z,9.30
2018-06-09T08:58:53.272Z,9.50
2018-06-09T09:01:21.042Z,9.38
2018-06-09T09:03:48.825Z,9.63
2018-06-09T09:06:16.557Z,9.70
2018-06-09T09:08:44.322Z,9.38
2018-06-09T09:11:12.203Z,9.70
2018-06-09T09:13:39.980Z,9.85
2018-06-09T09:16:26.718Z,9.95
2018-06-09T09:18:54.433Z,9.63
2018-06-09T09:21:22.230Z,9.78
2018-06-09T09:23:50.073Z,10.00
2018-06-09T09:26:17.744Z,9.45
2018-06-09T09:28:45.485Z,8.50
2018-06-09T09:31:13.198Z,8.70
2018-06-09T09:33:40.893Z,9.38
2018-06-09T09:36:08.698Z,8.90
2018-06-09T09:38:36.447Z,8.93
2018-06-09T09:41:04.207Z,8.53
2018-06-09T09:43:45.224Z,9.28
2018-06-09T09:46:12.974Z,9.20
2018-06-09T09:48:40.711Z,9.48
2018-06-09T09:51:08.390Z,9.00
2018-06-09T09:53:36.116Z,9.83
2018-06-09T09:56:03.908Z,10.05
2018-06-09T09:58:31.700Z,10.60
2018-06-09T10:00:59.418Z,9.45
2018-06-09T10:03:27.232Z,9.03
2018-06-09T10:05:55.016Z,9.60
2018-06-09T10:08:22.769Z,9.43
2018-06-09T10:10:50.609Z,8.85
2018-06-09T10:13:18.370Z,9.63
2018-06-09T10:15:46.117Z,10.30
2018-06-09T10:18:13.918Z,9.85
2018-06-09T10:20:41.699Z,10.40
2018-06-09T10:23:39.969Z,11.03
2018-06-09T10:26:07.772Z,10.10
2018-06-09T10:28:35.572Z,10.03
2018-06-09T10:31:03.429Z,10.13
2018-06-09T10:33:31.368Z,9.90
2018-06-09T10:35:59.253Z,10.45
2018-06-09T10:38:50.736Z,10.08
2018-06-09T10:41:18.440Z,19.62
2018-06-09T10:43:46.223Z,9.48
2018-06-09T10:46:14.021Z,9.23
2018-06-09T10:48:41.813Z,8.90
2018-06-09T10:51:09.622Z,9.33
2018-06-09T10:53:37.417Z,9.38
2018-06-09T10:56:05.263Z,9.05
2018-06-09T10:58:32.997Z,8.70
2018-06-09T11:01:00.796Z,8.38
2018-06-09T11:03:28.565Z,9.08
2018-06-09T11:05:56.284Z,8.53
2018-06-09T11:08:24.101Z,8.38
2018-06-09T11:10:51.941Z,9.38
2018-06-09T11:13:19.753Z,8.30
2018-06-09T11:15:47.565Z,8.25
2018-06-09T11:18:15.286Z,8.70
2018-06-09T11:20:43.033Z,8.40
2018-06-09T11:23:10.812Z,8.10
2018-06-09T11:25:38.660Z,8.33
2018-06-09T11:28:12.097Z,8.35
2018-06-09T11:33:44.922Z,8.43
2018-06-09T11:36:12.729Z,7.67
2018-06-09T11:38:40.455Z,7.17
2018-06-09T11:41:08.226Z,7.78
2018-06-09T11:43:36.112Z,8.25
2018-06-09T11:46:03.937Z,8.05
2018-06-09T11:48:31.713Z,8.15
2018-06-09T11:50:59.449Z,7.92
2018-06-09T11:53:27.253Z,7.58
2018-06-09T11:55:55.088Z,7.70
2018-06-09T11:58:22.881Z,7.67
2018-06-09T12:00:50.640Z,7.12
2018-06-09T12:03:18.505Z,7.40
2018-06-09T12:05:46.301Z,7.20
2018-06-09T12:08:14.100Z,7.95
2018-06-09T12:10:41.829Z,7.62
2018-06-09T12:13:09.568Z,7.28
2018-06-09T12:15:37.357Z,7.55
2018-06-09T12:18:05.192Z,6.78
2018-06-09T12:20:33.008Z,7.53
2018-06-09T12:23:00.813Z,6.83
2018-06-09T12:25:28.533Z,6.62
2018-06-09T12:27:56.302Z,7.50
2018-06-09T12:30:24.155Z,7.58
2018-06-09T12:32:52.003Z,7.42
2018-06-09T12:35:19.784Z,7.28
2018-06-09T12:37:47.478Z,7.12
2018-06-09T12:40:15.320Z,7.47
2018-06-09T12:42:43.121Z,7.35
2018-06-09T12:45:10.953Z,7.12
2018-06-09T12:47:38.803Z,6.83
2018-06-09T12:50:06.580Z,7.42
2018-06-09T12:52:34.348Z,7.10
2018-06-09T12:55:02.146Z,6.45
2018-06-09T12:57:29.972Z,7.47
2018-06-09T12:59:57.872Z,7.00
2018-06-09T13:02:25.710Z,7.30
2018-06-09T13:04:53.463Z,7.10
2018-06-09T13:07:21.681Z,6.47
2018-06-09T13:09:49.444Z,7.25
2018-06-09T13:12:17.264Z,7.58
2018-06-09T13:14:45.077Z,8.45
2018-06-09T13:17:12.866Z,7.65
2018-06-09T13:19:40.556Z,7.25
2018-06-09T13:22:08.464Z,7.62
2018-06-09T13:24:36.236Z,7.28
2018-06-09T13:27:04.058Z,7.65
2018-06-09T13:29:31.810Z,7.60
2018-06-09T13:31:59.592Z,7.55
2018-06-09T13:34:27.372Z,7.50
2018-06-09T13:36:55.212Z,7.78
2018-06-09T13:39:22.997Z,6.62
2018-06-09T13:42:03.224Z,7.30
2018-06-09T13:44:30.999Z,6.92
2018-06-09T13:46:58.781Z,7.17
2018-06-09T13:49:26.604Z,6.47
2018-06-09T13:51:54.360Z,6.55
2018-06-09T13:54:22.263Z,6.95
2018-06-09T13:56:50.049Z,7.15
2018-06-09T13:59:17.776Z,7.50
2018-06-09T14:01:45.569Z,7.37
2018-06-09T14:04:13.352Z,7.08
2018-06-09T14:06:41.096Z,6.78
2018-06-09T14:09:08.920Z,7.22
2018-06-09T14:11:36.738Z,7.12
2018-06-09T14:14:04.489Z,6.92
2018-06-09T14:19:43.861Z,6.90
2018-06-09T14:22:11.610Z,6.92
2018-06-09T14:24:39.353Z,6.80
2018-06-09T14:27:07.692Z,7.22
2018-06-09T14:29:35.493Z,6.92
2018-06-09T14:32:03.352Z,7.03
2018-06-09T14:34:50.977Z,6.72
2018-06-09T14:37:18.805Z,6.75
2018-06-09T14:39:46.620Z,6.65
2018-06-09T14:42:14.421Z,7.00
2018-06-09T14:44:42.134Z,6.50
2018-06-09T14:47:09.972Z,6.85
2018-06-09T14:49:37.787Z,6.62
2018-06-09T14:52:05.503Z,6.75
2018-06-09T14:54:33.345Z,6.70
2018-06-09T14:57:01.206Z,7.47
2018-06-09T14:59:30.950Z,6.65
2018-06-09T15:01:59.925Z,6.33
2018-06-09T15:04:27.677Z,6.45
2018-06-09T15:06:55.509Z,6.62
2018-06-09T15:09:23.373Z,7.40
2018-06-09T15:11:51.188Z,6.83
2018-06-09T15:14:18.977Z,7.35
2018-06-09T15:16:46.765Z,6.67
2018-06-09T15:19:14.661Z,6.62
2018-06-09T15:21:42.541Z,6.42
2018-06-09T15:24:10.310Z,6.60
2018-06-09T15:26:38.141Z,6.28
2018-06-09T15:29:05.959Z,7.05
2018-06-09T15:31:33.819Z,11.22
2018-06-09T15:34:01.660Z,8.98
2018-06-09T15:36:29.558Z,9.08
2018-06-09T15:38:57.342Z,9.08
2018-06-09T15:41:25.200Z,9.50
2018-06-09T15:43:53.122Z,9.23
2018-06-09T15:46:20.908Z,9.35
2018-06-09T15:48:48.780Z,8.80
2018-06-09T15:51:16.612Z,7.75
2018-06-09T15:53:44.435Z,7.95
2018-06-09T15:56:12.256Z,7.75
2018-06-09T15:58:40.038Z,8.23
2018-06-09T16:01:07.840Z,8.03
2018-06-09T16:03:35.620Z,8.70
2018-06-09T16:06:03.462Z,8.50
2018-06-09T16:08:31.239Z,6.78
2018-06-09T16:10:59.018Z,6.72
2018-06-09T16:13:26.860Z,6.17
2018-06-09T16:15:54.654Z,7.12
2018-06-09T16:18:22.364Z,7.58
2018-06-09T16:20:50.164Z,7.70
2018-06-09T16:23:17.945Z,7.90
2018-06-09T16:25:45.823Z,7.53
2018-06-09T16:31:33.021Z,7.12
2018-06-09T16:34:00.773Z,7.33
2018-06-09T16:36:28.647Z,7.15
2018-06-09T16:38:56.439Z,7.55
2018-06-09T16:41:24.257Z,7.10
2018-06-09T16:43:52.049Z,7.92
2018-06-09T16:46:19.800Z,7.35
2018-06-09T16:48:47.532Z,7.35
2018-06-09T16:51:15.315Z,6.97
2018-06-09T16:53:43.102Z,7.05
2018-06-09T16:56:10.892Z,6.80
2018-06-09T16:58:38.631Z,6.53
2018-06-09T17:01:06.398Z,7.03
2018-06-09T17:03:34.216Z,6.42
2018-06-09T17:06:02.020Z,6.40
2018-06-09T17:08:29.845Z,6.78
2018-06-09T17:10:57.593Z,6.95
2018-06-09T17:13:25.397Z,7.05
2018-06-09T17:15:53.208Z,7.12
2018-06-09T17:18:20.982Z,7.58
2018-06-09T17:20:48.761Z,6.65
2018-06-09T17:23:16.553Z,6.75
2018-06-09T17:25:44.416Z,6.85
2018-06-09T17:28:12.272Z,6.58
2018-06-09T17:30:40.077Z,7.10
2018-06-09T17:33:07.927Z,7.10
2018-06-09T17:35:35.651Z,7.12
2018-06-09T17:38:03.517Z,7.03
2018-06-09T17:40:31.317Z,7.05
2018-06-09T17:42:59.121Z,6.50
2018-06-09T17:45:26.956Z,6.85
2018-06-09T17:47:54.803Z,5.72
2018-06-09T17:50:22.632Z,6.08
2018-06-09T17:52:50.484Z,6.37
2018-06-09T17:55:18.294Z,5.75
2018-06-09T17:57:46.128Z,6.58
2018-06-09T18:00:13.851Z,6.20
2018-06-09T18:02:41.672Z,6.00
2018-06-09T18:05:09.471Z,6.12
2018-06-09T18:07:37.267Z,7.17
2018-06-09T18:10:05.257Z,6.62
2018-06-09T18:12:33.214Z,7.15
2018-06-09T18:15:01.013Z,6.12
2018-06-09T18:17:28.888Z,5.78
2018-06-09T18:19:56.749Z,5.95
2018-06-09T18:22:24.536Z,6.33
2018-06-09T18:24:52.401Z,6.40
2018-06-09T18:27:22.305Z,5.97
2018-06-09T18:29:50.141Z,5.80
2018-06-09T18:32:17.974Z,6.17
2018-06-09T18:34:45.785Z,6.37
2018-06-09T18:37:13.562Z,6.40
2018-06-09T18:39:41.489Z,6.25
2018-06-09T18:42:09.321Z,6.03
2018-06-09T18:44:37.143Z,6.47
2018-06-09T18:47:05.114Z,6.55
2018-06-09T18:49:32.981Z,6.87
2018-06-09T18:52:00.851Z,8.03
2018-06-09T18:54:28.644Z,7.10
2018-06-09T18:56:56.442Z,7.10
2018-06-09T18:59:24.307Z,6.78
2018-06-09T19:01:52.133Z,6.70
2018-06-09T19:04:20.023Z,7.08
2018-06-09T19:06:47.819Z,6.53
2018-06-09T19:09:15.659Z,6.50
2018-06-09T19:11:43.525Z,7.08
2018-06-09T19:14:11.398Z,7.92
2018-06-09T19:16:54.239Z,7.78
2018-06-09T19:19:22.704Z,8.75
2018-06-09T19:21:50.394Z,8.95
2018-06-09T19:24:18.161Z,8.48
2018-06-09T19:26:45.968Z,9.15
2018-06-09T19:29:13.814Z,8.43
2018-06-09T19:31:41.657Z,10.18
2018-06-09T19:34:09.484Z,10.45
2018-06-09T19:36:37.423Z,9.65
2018-06-09T19:39:07.305Z,11.22
2018-06-09T19:41:35.641Z,11.22
2018-06-09T19:44:03.545Z,9.93
2018-06-09T19:46:31.408Z,10.20
2018-06-09T19:48:59.297Z,10.68
2018-06-09T19:51:27.249Z,10.35
2018-06-09T19:53:55.121Z,10.45
2018-06-09T19:56:22.941Z,10.30
2018-06-09T19:58:50.784Z,10.32
2018-06-09T20:01:18.670Z,10.93
2018-06-09T20:03:46.509Z,10.15
2018-06-09T20:06:14.397Z,10.88
2018-06-09T20:08:42.156Z,11.53
2018-06-09T20:17:33.356Z,11.68
2018-06-09T20:20:01.168Z,12.23
2018-06-09T20:22:29.025Z,11.55
2018-06-09T20:24:56.869Z,12.43
2018-06-09T20:27:24.671Z,11.97
2018-06-09T20:29:56.416Z,11.93
2018-06-09T20:32:24.298Z,12.50
2018-06-09T20:34:52.225Z,12.50
2018-06-09T20:37:20.040Z,12.70
2018-06-09T20:39:47.839Z,12.20
2018-06-09T20:42:15.644Z,14.00
2018-06-09T20:44:43.550Z,12.88
2018-06-09T20:47:11.352Z,13.65
2018-06-09T20:49:39.323Z,13.35
2018-06-09T20:52:07.160Z,12.65
2018-06-09T20:54:34.918Z,12.78
2018-06-09T20:57:02.771Z,12.90
2018-06-09T20:59:30.595Z,13.53
2018-06-09T21:01:58.440Z,13.62
2018-06-09T21:04:26.276Z,13.88
2018-06-09T21:06:54.228Z,13.60
2018-06-09T21:09:22.043Z,13.68
2018-06-09T21:11:49.864Z,14.90
2018-06-09T21:14:17.689Z,14.93
2018-06-09T21:16:45.492Z,14.53
2018-06-09T21:19:13.341Z,13.88
2018-06-09T21:21:41.221Z,15.05
2018-06-09T21:24:09.088Z,13.65
2018-06-09T21:26:42.638Z,14.18
2018-06-09T21:29:11.417Z,13.18
2018-06-09T21:32:02.766Z,14.38
2018-06-09T21:34:58.530Z,14.15
2018-06-09T21:40:48.748Z,14.70
2018-06-09T21:43:41.828Z,14.55
2018-06-09T21:49:11.721Z,14.13
2018-06-09T21:51:40.573Z,13.95
2018-06-09T21:57:34.987Z,13.08
2018-06-09T22:00:02.849Z,13.25
2018-06-09T22:02:30.600Z,12.63
2018-06-09T22:04:58.414Z,13.20
2018-06-09T22:07:26.222Z,13.75
2018-06-09T22:10:11.386Z,13.55
2018-06-09T22:12:39.259Z,14.15
2018-06-09T22:15:07.134Z,13.78
2018-06-09T22:17:34.968Z,14.53
2018-06-09T22:20:02.870Z,13.80
2018-06-09T22:22:30.662Z,13.78
2018-06-09T22:24:58.501Z,14.13
2018-06-09T22:27:26.428Z,15.10
2018-06-09T22:29:54.208Z,13.83
2018-06-09T22:32:22.176Z,13.58
2018-06-09T22:34:49.973Z,14.73
2018-06-09T22:37:17.818Z,14.47
2018-06-09T22:39:45.668Z,15.68
2018-06-09T22:42:13.469Z,15.15
2018-06-09T22:44:41.306Z,15.80
2018-06-09T22:47:09.088Z,15.90
2018-06-09T22:49:36.905Z,16.10
2018-06-09T22:52:04.717Z,16.05
2018-06-09T22:54:32.594Z,16.45
2018-06-09T22:57:00.376Z,16.85
2018-06-09T22:59:28.232Z,15.95
2018-06-09T23:01:55.999Z,16.40
2018-06-09T23:04:23.813Z,16.75
2018-06-09T23:06:51.629Z,17.92
2018-06-09T23:09:19.521Z,17.82
2018-06-09T23:11:47.430Z,19.07
2018-06-09T23:14:15.275Z,19.73
2018-06-09T23:16:43.108Z,18.77
2018-06-09T23:19:10.941Z,19.15
2018-06-09T23:21:39.576Z,19.23
2018-06-09T23:24:07.485Z,19.52
2018-06-09T23:26:35.346Z,19.27
2018-06-09T23:29:03.236Z,19.12
2018-06-09T23:31:31.116Z,19.90
2018-06-09T23:33:58.872Z,19.80
2018-06-09T23:36:26.746Z,19.50
2018-06-09T23:38:54.697Z,19.70
2018-06-09T23:41:22.581Z,19.30
2018-06-09T23:43:50.380Z,19.75
2018-06-09T23:46:18.228Z,20.50
2018-06-09T23:48:46.024Z,20.32
2018-06-09T23:51:13.905Z,21.00
2018-06-09T23:53:41.693Z,21.33
2018-06-09T23:56:09.534Z,19.87
2018-06-09T23:58:37.330Z,21.17
